Palisades, Idaho
Current Conditions -  °F | °C
As of 7:56 PM on Wednesday 26 Nov 2014 (Local Time) from KDIJ Reporting Station
Clear Clear  
Wind Chill: 31°   Ceiling: Unl
Heat Index: 39°   Visibility: 10mi
Dew Point: 28°   Wind: 13mph
Humidity: 65%   Direction: 140°SE
Pressure: 30.31"   Gusts: NA
Location:  43.4056°N, 111.297°W
Report Text: KDIJ 270256Z AUTO 14011KT 10SM CLR 04/M02 A3031 RMK AO2 51000 T00381022 SLP245
Loading
Personal Weather Stations






























Interactive Weather Map New forecast layout! Learn more

10-Day Weather Forecast

Advertisements
Track Severe Weather on mobile